sensor_id;sensor_type;location;lat;lon;timestamp;pressure;altitude;pressure_sealevel;temperature;humidity
38054;BME280;23859;50.672;7.164;2022-11-15T00:02:02;100159.56;;;12.03;100.00
38054;BME280;23859;50.672;7.164;2022-11-15T00:04:30;100171.19;;;12.02;100.00
38054;BME280;23859;50.672;7.164;2022-11-15T00:06:56;100165.50;;;11.97;100.00
38054;BME280;23859;50.672;7.164;2022-11-15T00:09:22;100164.78;;;12.13;100.00
38054;BME280;23859;50.672;7.164;2022-11-15T00:11:48;100166.94;;;12.09;100.00
38054;BME280;23859;50.672;7.164;2022-11-15T00:14:14;100166.94;;;12.09;100.00
38054;BME280;23859;50.672;7.164;2022-11-15T00:16:40;100164.81;;;12.21;100.00
38054;BME280;23859;50.672;7.164;2022-11-15T00:19:07;100171.94;;;12.12;100.00
38054;BME280;23859;50.672;7.164;2022-11-15T00:21:33;100163.13;;;12.12;100.00
38054;BME280;23859;50.672;7.164;2022-11-15T00:23:59;100158.97;;;12.17;100.00
38054;BME280;23859;50.672;7.164;2022-11-15T00:26:25;100163.91;;;12.04;100.00
38054;BME280;23859;50.672;7.164;2022-11-15T00:28:52;100154.06;;;12.05;100.00
38054;BME280;23859;50.672;7.164;2022-11-15T00:31:19;100157.69;;;12.21;100.00
38054;BME280;23859;50.672;7.164;2022-11-15T00:33:45;100162.94;;;12.13;100.00
38054;BME280;23859;50.672;7.164;2022-11-15T00:36:11;100177.94;;;12.14;100.00
38054;BME280;23859;50.672;7.164;2022-11-15T00:38:39;100171.47;;;12.17;100.00
38054;BME280;23859;50.672;7.164;2022-11-15T00:41:06;100176.44;;;12.12;100.00
38054;BME280;23859;50.672;7.164;2022-11-15T00:43:33;100176.97;;;12.15;100.00
38054;BME280;23859;50.672;7.164;2022-11-15T00:46:00;100168.59;;;12.10;100.00
38054;BME280;23859;50.672;7.164;2022-11-15T00:48:26;100166.59;;;12.12;100.00
38054;BME280;23859;50.672;7.164;2022-11-15T00:50:52;100161.50;;;12.19;100.00
38054;BME280;23859;50.672;7.164;2022-11-15T00:53:18;100166.59;;;12.38;100.00
38054;BME280;23859;50.672;7.164;2022-11-15T00:55:44;100164.28;;;12.43;100.00
38054;BME280;23859;50.672;7.164;2022-11-15T00:58:10;100158.75;;;12.36;100.00
38054;BME280;23859;50.672;7.164;2022-11-15T01:00:36;100159.94;;;12.42;100.00
38054;BME280;23859;50.672;7.164;2022-11-15T01:03:02;100161.78;;;12.41;100.00
38054;BME280;23859;50.672;7.164;2022-11-15T01:05:28;100163.13;;;12.45;100.00
38054;BME280;23859;50.672;7.164;2022-11-15T01:07:55;100145.88;;;12.57;100.00
38054;BME280;23859;50.672;7.164;2022-11-15T01:10:22;100147.34;;;12.52;100.00
38054;BME280;23859;50.672;7.164;2022-11-15T01:12:49;100144.25;;;12.64;100.00
38054;BME280;23859;50.672;7.164;2022-11-15T01:15:15;100148.00;;;12.54;100.00
38054;BME280;23859;50.672;7.164;2022-11-15T01:17:41;100145.91;;;12.65;100.00
38054;BME280;23859;50.672;7.164;2022-11-15T01:20:08;100140.53;;;12.57;100.00
38054;BME280;23859;50.672;7.164;2022-11-15T01:22:34;100142.50;;;12.55;100.00
38054;BME280;23859;50.672;7.164;2022-11-15T01:25:00;100139.38;;;12.52;100.00
38054;BME280;23859;50.672;7.164;2022-11-15T01:27:26;100142.31;;;12.49;100.00
38054;BME280;23859;50.672;7.164;2022-11-15T01:29:52;100147.13;;;12.45;100.00
38054;BME280;23859;50.672;7.164;2022-11-15T01:32:18;100143.28;;;12.40;100.00
38054;BME280;23859;50.672;7.164;2022-11-15T01:34:45;100133.44;;;12.32;100.00
38054;BME280;23859;50.672;7.164;2022-11-15T01:37:11;100133.47;;;12.40;100.00
38054;BME280;23859;50.672;7.164;2022-11-15T01:39:37;100133.09;;;12.35;100.00
38054;BME280;23859;50.672;7.164;2022-11-15T01:42:03;100124.75;;;12.30;100.00
38054;BME280;23859;50.672;7.164;2022-11-15T01:44:51;100126.06;;;12.26;100.00
38054;BME280;23859;50.672;7.164;2022-11-15T01:47:33;100128.75;;;12.34;100.00
38054;BME280;23859;50.672;7.164;2022-11-15T01:50:03;100131.56;;;12.25;100.00
38054;BME280;23859;50.672;7.164;2022-11-15T01:52:32;100130.09;;;12.30;100.00
38054;BME280;23859;50.672;7.164;2022-11-15T01:55:02;100126.09;;;12.34;100.00
38054;BME280;23859;50.672;7.164;2022-11-15T01:57:29;100115.16;;;12.45;100.00
38054;BME280;23859;50.672;7.164;2022-11-15T01:59:55;100113.00;;;12.41;100.00
38054;BME280;23859;50.672;7.164;2022-11-15T02:02:23;100113.84;;;12.49;100.00
38054;BME280;23859;50.672;7.164;2022-11-15T02:04:49;100113.53;;;12.52;100.00
38054;BME280;23859;50.672;7.164;2022-11-15T02:07:19;100108.56;;;12.57;100.00
38054;BME280;23859;50.672;7.164;2022-11-15T02:09:46;100102.94;;;12.76;100.00
38054;BME280;23859;50.672;7.164;2022-11-15T02:12:15;100102.88;;;12.60;100.00
38054;BME280;23859;50.672;7.164;2022-11-15T02:14:46;100089.94;;;12.65;100.00
38054;BME280;23859;50.672;7.164;2022-11-15T02:17:43;100094.34;;;12.49;100.00
38054;BME280;23859;50.672;7.164;2022-11-15T02:20:25;100086.59;;;12.63;100.00
38054;BME280;23859;50.672;7.164;2022-11-15T02:35:06;100068.47;;;12.82;100.00
38054;BME280;23859;50.672;7.164;2022-11-15T02:37:51;100083.63;;;12.74;100.00
38054;BME280;23859;50.672;7.164;2022-11-15T02:43:11;100076.19;;;12.93;100.00
38054;BME280;23859;50.672;7.164;2022-11-15T02:46:35;100066.69;;;12.99;100.00
38054;BME280;23859;50.672;7.164;2022-11-15T02:49:24;100067.78;;;12.80;100.00
38054;BME280;23859;50.672;7.164;2022-11-15T02:51:52;100060.97;;;12.86;100.00
38054;BME280;23859;50.672;7.164;2022-11-15T02:54:24;100059.63;;;12.82;100.00
38054;BME280;23859;50.672;7.164;2022-11-15T02:56:52;100065.81;;;12.82;100.00
38054;BME280;23859;50.672;7.164;2022-11-15T03:05:18;100063.44;;;12.79;100.00
38054;BME280;23859;50.672;7.164;2022-11-15T03:10:39;100052.00;;;13.03;100.00
38054;BME280;23859;50.672;7.164;2022-11-15T03:16:03;100049.00;;;12.98;100.00
38054;BME280;23859;50.672;7.164;2022-11-15T03:18:40;100048.84;;;13.07;100.00
38054;BME280;23859;50.672;7.164;2022-11-15T03:21:08;100052.38;;;13.08;100.00
38054;BME280;23859;50.672;7.164;2022-11-15T03:23:38;100044.69;;;13.05;100.00
38054;BME280;23859;50.672;7.164;2022-11-15T03:26:07;100048.84;;;13.07;100.00
38054;BME280;23859;50.672;7.164;2022-11-15T03:28:39;100042.50;;;13.00;100.00
38054;BME280;23859;50.672;7.164;2022-11-15T03:31:07;100044.84;;;13.03;100.00
38054;BME280;23859;50.672;7.164;2022-11-15T03:33:55;100045.88;;;13.10;100.00
38054;BME280;23859;50.672;7.164;2022-11-15T03:36:25;100046.34;;;13.14;100.00
38054;BME280;23859;50.672;7.164;2022-11-15T03:38:58;100041.53;;;13.09;100.00
38054;BME280;23859;50.672;7.164;2022-11-15T03:41:34;100041.03;;;13.06;100.00
38054;BME280;23859;50.672;7.164;2022-11-15T03:44:27;100043.66;;;12.98;100.00
38054;BME280;23859;50.672;7.164;2022-11-15T03:49:36;100044.69;;;13.05;100.00
38054;BME280;23859;50.672;7.164;2022-11-15T03:52:04;100049.50;;;13.01;100.00
38054;BME280;23859;50.672;7.164;2022-11-15T03:54:31;100047.16;;;12.90;100.00
38054;BME280;23859;50.672;7.164;2022-11-15T03:56:57;100042.69;;;12.91;100.00
38054;BME280;23859;50.672;7.164;2022-11-15T03:59:23;100042.69;;;13.07;100.00
38054;BME280;23859;50.672;7.164;2022-11-15T04:01:49;100044.34;;;13.00;100.00
38054;BME280;23859;50.672;7.164;2022-11-15T04:04:16;100040.50;;;13.02;100.00
38054;BME280;23859;50.672;7.164;2022-11-15T04:06:42;100037.34;;;12.99;100.00
38054;BME280;23859;50.672;7.164;2022-11-15T04:09:08;100029.19;;;12.92;100.00
38054;BME280;23859;50.672;7.164;2022-11-15T04:11:34;100029.19;;;12.92;100.00
38054;BME280;23859;50.672;7.164;2022-11-15T04:14:00;100027.97;;;12.79;100.00
38054;BME280;23859;50.672;7.164;2022-11-15T04:16:26;100034.94;;;12.72;100.00
38054;BME280;23859;50.672;7.164;2022-11-15T04:18:52;100035.44;;;12.67;100.00
38054;BME280;23859;50.672;7.164;2022-11-15T04:21:37;100030.94;;;12.68;100.00
38054;BME280;23859;50.672;7.164;2022-11-15T04:24:22;100031.63;;;12.70;100.00
38054;BME280;23859;50.672;7.164;2022-11-15T04:26:48;100029.59;;;12.72;100.00
38054;BME280;23859;50.672;7.164;2022-11-15T04:29:14;100037.59;;;12.72;100.00
38054;BME280;23859;50.672;7.164;2022-11-15T04:31:59;100032.78;;;12.75;100.00
38054;BME280;23859;50.672;7.164;2022-11-15T04:34:25;100029.28;;;12.75;100.00
38054;BME280;23859;50.672;7.164;2022-11-15T04:36:51;100028.66;;;12.89;100.00
38054;BME280;23859;50.672;7.164;2022-11-15T04:39:35;100030.16;;;12.83;100.00
38054;BME280;23859;50.672;7.164;2022-11-15T04:42:01;100031.34;;;12.97;100.00
38054;BME280;23859;50.672;7.164;2022-11-15T04:44:27;100025.97;;;12.81;100.00
38054;BME280;23859;50.672;7.164;2022-11-15T04:46:53;100024.28;;;12.72;100.00
38054;BME280;23859;50.672;7.164;2022-11-15T04:49:19;100025.63;;;12.84;100.00
38054;BME280;23859;50.672;7.164;2022-11-15T04:51:45;100030.00;;;12.93;100.00
38054;BME280;23859;50.672;7.164;2022-11-15T04:54:11;100035.69;;;12.90;100.00
38054;BME280;23859;50.672;7.164;2022-11-15T04:56:37;100033.84;;;12.98;100.00
38054;BME280;23859;50.672;7.164;2022-11-15T04:59:04;100038.69;;;12.95;100.00
38054;BME280;23859;50.672;7.164;2022-11-15T05:01:30;100037.13;;;12.84;100.00
38054;BME280;23859;50.672;7.164;2022-11-15T05:03:56;100039.13;;;12.82;100.00
38054;BME280;23859;50.672;7.164;2022-11-15T05:06:40;100034.81;;;12.89;100.00
38054;BME280;23859;50.672;7.164;2022-11-15T05:09:06;100038.34;;;12.90;100.00
38054;BME280;23859;50.672;7.164;2022-11-15T05:11:32;100042.84;;;12.97;100.00
38054;BME280;23859;50.672;7.164;2022-11-15T05:13:58;100037.50;;;12.97;100.00
38054;BME280;23859;50.672;7.164;2022-11-15T05:16:24;100040.00;;;12.91;100.00
38054;BME280;23859;50.672;7.164;2022-11-15T05:18:52;100039.97;;;12.83;100.00
38054;BME280;23859;50.672;7.164;2022-11-15T05:21:19;100023.66;;;12.86;100.00
38054;BME280;23859;50.672;7.164;2022-11-15T05:23:45;100028.97;;;12.86;100.00
38054;BME280;23859;50.672;7.164;2022-11-15T05:26:11;100036.28;;;12.76;100.00
38054;BME280;23859;50.672;7.164;2022-11-15T05:28:38;100032.31;;;12.80;100.00
38054;BME280;23859;50.672;7.164;2022-11-15T05:31:06;100037.28;;;12.75;100.00
38054;BME280;23859;50.672;7.164;2022-11-15T05:33:34;100035.56;;;12.50;100.00
38054;BME280;23859;50.672;7.164;2022-11-15T05:36:14;100036.88;;;12.38;100.00
38054;BME280;23859;50.672;7.164;2022-11-15T05:38:43;100038.31;;;12.25;100.00
38054;BME280;23859;50.672;7.164;2022-11-15T05:41:10;100028.88;;;12.38;100.00
38054;BME280;23859;50.672;7.164;2022-11-15T05:43:39;100030.81;;;12.28;100.00
38054;BME280;23859;50.672;7.164;2022-11-15T05:46:06;100033.47;;;12.20;100.00
38054;BME280;23859;50.672;7.164;2022-11-15T05:48:34;100040.75;;;12.10;100.00
38054;BME280;23859;50.672;7.164;2022-11-15T05:51:02;100043.38;;;12.02;100.00
38054;BME280;23859;50.672;7.164;2022-11-15T05:53:30;100040.34;;;11.97;100.00
38054;BME280;23859;50.672;7.164;2022-11-15T05:55:56;100045.41;;;12.08;100.00
38054;BME280;23859;50.672;7.164;2022-11-15T05:58:22;100045.16;;;12.27;100.00
38054;BME280;23859;50.672;7.164;2022-11-15T06:00:48;100048.75;;;12.18;100.00
38054;BME280;23859;50.672;7.164;2022-11-15T06:03:15;100050.78;;;12.16;100.00
38054;BME280;23859;50.672;7.164;2022-11-15T06:05:41;100050.38;;;12.03;100.00
38054;BME280;23859;50.672;7.164;2022-11-15T06:08:07;100058.09;;;12.22;100.00
38054;BME280;23859;50.672;7.164;2022-11-15T06:10:33;100067.13;;;12.29;100.00
38054;BME280;23859;50.672;7.164;2022-11-15T06:12:59;100066.97;;;12.31;100.00
38054;BME280;23859;50.672;7.164;2022-11-15T06:15:26;100058.19;;;12.38;100.00
38054;BME280;23859;50.672;7.164;2022-11-15T06:17:52;100062.19;;;12.42;100.00
38054;BME280;23859;50.672;7.164;2022-11-15T06:20:23;100067.31;;;12.36;100.00
38054;BME280;23859;50.672;7.164;2022-11-15T06:22:49;100060.75;;;12.22;100.00
38054;BME280;23859;50.672;7.164;2022-11-15T06:25:16;100073.25;;;12.14;100.00
38054;BME280;23859;50.672;7.164;2022-11-15T06:27:42;100077.06;;;12.11;100.00
38054;BME280;23859;50.672;7.164;2022-11-15T06:30:08;100075.84;;;12.06;100.00
38054;BME280;23859;50.672;7.164;2022-11-15T06:32:34;100079.50;;;12.05;100.00
38054;BME280;23859;50.672;7.164;2022-11-15T06:35:00;100084.72;;;12.14;100.00
38054;BME280;23859;50.672;7.164;2022-11-15T06:37:26;100085.41;;;12.16;100.00
38054;BME280;23859;50.672;7.164;2022-11-15T06:39:52;100078.34;;;12.07;100.00
38054;BME280;23859;50.672;7.164;2022-11-15T06:42:18;100090.94;;;11.97;100.00
38054;BME280;23859;50.672;7.164;2022-11-15T06:44:44;100089.88;;;12.16;100.00
38054;BME280;23859;50.672;7.164;2022-11-15T06:47:10;100085.94;;;11.95;100.00
38054;BME280;23859;50.672;7.164;2022-11-15T06:49:36;100090.41;;;11.94;100.00
38054;BME280;23859;50.672;7.164;2022-11-15T06:52:02;100083.19;;;11.79;100.00
38054;BME280;23859;50.672;7.164;2022-11-15T06:54:28;100086.88;;;11.86;100.00
38054;BME280;23859;50.672;7.164;2022-11-15T06:56:54;100093.84;;;11.79;100.00
38054;BME280;23859;50.672;7.164;2022-11-15T06:59:20;100086.94;;;11.68;100.00
38054;BME280;23859;50.672;7.164;2022-11-15T07:01:46;100089.16;;;11.81;100.00
38054;BME280;23859;50.672;7.164;2022-11-15T07:04:12;100078.06;;;11.85;100.00
38054;BME280;23859;50.672;7.164;2022-11-15T07:06:38;100084.53;;;11.83;100.00
38054;BME280;23859;50.672;7.164;2022-11-15T07:09:05;100084.72;;;11.89;100.00
38054;BME280;23859;50.672;7.164;2022-11-15T07:11:32;100094.41;;;11.90;100.00
38054;BME280;23859;50.672;7.164;2022-11-15T07:13:59;100093.56;;;11.90;100.00
38054;BME280;23859;50.672;7.164;2022-11-15T07:16:25;100092.09;;;11.95;100.00
38054;BME280;23859;50.672;7.164;2022-11-15T07:18:51;100095.53;;;11.88;100.00
38054;BME280;23859;50.672;7.164;2022-11-15T07:21:17;100093.22;;;11.85;100.00
38054;BME280;23859;50.672;7.164;2022-11-15T07:23:43;100094.09;;;11.68;100.00
38054;BME280;23859;50.672;7.164;2022-11-15T07:26:09;100098.09;;;11.72;100.00
38054;BME280;23859;50.672;7.164;2022-11-15T07:28:35;100092.25;;;11.68;100.00
38054;BME280;23859;50.672;7.164;2022-11-15T07:31:06;100102.66;;;11.79;100.00
38054;BME280;23859;50.672;7.164;2022-11-15T07:33:33;100103.88;;;11.85;100.00
38054;BME280;23859;50.672;7.164;2022-11-15T07:36:00;100102.81;;;11.78;100.00
38054;BME280;23859;50.672;7.164;2022-11-15T07:38:28;100111.97;;;11.83;100.00
38054;BME280;23859;50.672;7.164;2022-11-15T07:40:59;100104.25;;;11.97;100.00
38054;BME280;23859;50.672;7.164;2022-11-15T07:43:25;100109.28;;;12.00;100.00
38054;BME280;23859;50.672;7.164;2022-11-15T07:45:53;100123.34;;;12.18;100.00
38054;BME280;23859;50.672;7.164;2022-11-15T07:48:19;100115.72;;;12.23;100.00
38054;BME280;23859;50.672;7.164;2022-11-15T07:50:46;100113.41;;;12.28;100.00
38054;BME280;23859;50.672;7.164;2022-11-15T07:53:12;100106.75;;;12.24;100.00
38054;BME280;23859;50.672;7.164;2022-11-15T07:55:40;100113.28;;;12.30;100.00
38054;BME280;23859;50.672;7.164;2022-11-15T07:58:08;100121.47;;;12.44;100.00
38054;BME280;23859;50.672;7.164;2022-11-15T08:00:35;100110.50;;;12.47;100.00
38054;BME280;23859;50.672;7.164;2022-11-15T08:03:08;100100.06;;;12.62;100.00
38054;BME280;23859;50.672;7.164;2022-11-15T08:05:35;100112.53;;;12.53;100.00
38054;BME280;23859;50.672;7.164;2022-11-15T08:08:02;100108.59;;;12.73;98.81
38054;BME280;23859;50.672;7.164;2022-11-15T08:10:28;100108.03;;;12.95;97.78
38054;BME280;23859;50.672;7.164;2022-11-15T08:13:02;100100.22;;;13.09;96.11
38054;BME280;23859;50.672;7.164;2022-11-15T08:15:29;100091.03;;;13.20;95.76
38054;BME280;23859;50.672;7.164;2022-11-15T08:17:57;100100.22;;;13.33;94.86
38054;BME280;23859;50.672;7.164;2022-11-15T08:20:25;100092.41;;;13.47;93.33
38054;BME280;23859;50.672;7.164;2022-11-15T08:22:51;100091.06;;;13.35;92.96
38054;BME280;23859;50.672;7.164;2022-11-15T08:25:17;100086.38;;;13.22;93.92
38054;BME280;23859;50.672;7.164;2022-11-15T08:27:43;100083.38;;;13.09;94.77
38054;BME280;23859;50.672;7.164;2022-11-15T08:30:10;100081.72;;;13.24;94.24
38054;BME280;23859;50.672;7.164;2022-11-15T08:32:37;100080.38;;;13.20;94.18
38054;BME280;23859;50.672;7.164;2022-11-15T08:35:03;99981.94;;;12.61;94.18
38054;BME280;23859;50.672;7.164;2022-11-15T08:37:29;100084.75;;;13.44;92.13
38054;BME280;23859;50.672;7.164;2022-11-15T08:39:55;100083.03;;;13.51;91.93
38054;BME280;23859;50.672;7.164;2022-11-15T08:42:21;100070.53;;;13.68;90.31
38054;BME280;23859;50.672;7.164;2022-11-15T08:44:47;100068.00;;;13.82;89.80
38054;BME280;23859;50.672;7.164;2022-11-15T08:47:13;100067.72;;;14.23;87.45
38054;BME280;23859;50.672;7.164;2022-11-15T08:49:39;100063.25;;;14.00;88.03
38054;BME280;23859;50.672;7.164;2022-11-15T08:52:05;100060.03;;;14.28;86.31
38054;BME280;23859;50.672;7.164;2022-11-15T08:54:32;100063.59;;;14.05;86.23
38054;BME280;23859;50.672;7.164;2022-11-15T08:56:58;100066.78;;;14.16;86.77
38054;BME280;23859;50.672;7.164;2022-11-15T08:59:24;100068.03;;;14.36;84.75
38054;BME280;23859;50.672;7.164;2022-11-15T09:01:50;100064.31;;;14.75;83.35
38054;BME280;23859;50.672;7.164;2022-11-15T09:04:17;100065.16;;;15.21;80.66
38054;BME280;23859;50.672;7.164;2022-11-15T09:06:43;100062.69;;;15.19;79.43
38054;BME280;23859;50.672;7.164;2022-11-15T09:09:09;100060.81;;;14.97;80.40
38054;BME280;23859;50.672;7.164;2022-11-15T09:11:35;100061.34;;;14.93;81.25
38054;BME280;23859;50.672;7.164;2022-11-15T09:14:01;100010.09;;;14.81;79.23
38054;BME280;23859;50.672;7.164;2022-11-15T09:16:27;100062.31;;;15.00;78.96
38054;BME280;23859;50.672;7.164;2022-11-15T09:18:55;100062.19;;;15.16;78.65
38054;BME280;23859;50.672;7.164;2022-11-15T09:21:21;100060.84;;;15.42;77.86
38054;BME280;23859;50.672;7.164;2022-11-15T09:23:50;100054.94;;;15.98;74.58
38054;BME280;23859;50.672;7.164;2022-11-15T09:26:17;99956.31;;;16.07;71.56
38054;BME280;23859;50.672;7.164;2022-11-15T09:28:44;100041.94;;;17.29;67.77
38054;BME280;23859;50.672;7.164;2022-11-15T09:31:10;100047.81;;;17.87;65.06
38054;BME280;23859;50.672;7.164;2022-11-15T09:33:36;100046.56;;;18.51;61.04
38054;BME280;23859;50.672;7.164;2022-11-15T09:36:08;100041.81;;;19.77;56.94
38054;BME280;23859;50.672;7.164;2022-11-15T09:38:35;100054.25;;;20.23;54.67
38054;BME280;23859;50.672;7.164;2022-11-15T09:43:53;100045.81;;;19.55;55.18
38054;BME280;23859;50.672;7.164;2022-11-15T09:49:10;100035.72;;;18.84;56.45
38054;BME280;23859;50.672;7.164;2022-11-15T09:51:43;100032.53;;;19.40;54.82
38054;BME280;23859;50.672;7.164;2022-11-15T09:54:34;100021.72;;;19.73;53.11
38054;BME280;23859;50.672;7.164;2022-11-15T09:57:18;100013.19;;;19.82;52.51
38054;BME280;23859;50.672;7.164;2022-11-15T09:59:58;100009.13;;;20.36;51.01
38054;BME280;23859;50.672;7.164;2022-11-15T10:05:12;99999.13;;;18.50;52.81
38054;BME280;23859;50.672;7.164;2022-11-15T10:07:50;100005.13;;;18.05;54.92
38054;BME280;23859;50.672;7.164;2022-11-15T10:10:29;99993.97;;;18.14;55.65
38054;BME280;23859;50.672;7.164;2022-11-15T10:12:57;99985.59;;;17.97;56.69
38054;BME280;23859;50.672;7.164;2022-11-15T10:15:23;99977.16;;;16.97;60.07
38054;BME280;23859;50.672;7.164;2022-11-15T10:18:00;99983.03;;;17.28;57.03
38054;BME280;23859;50.672;7.164;2022-11-15T10:20:32;99984.50;;;17.09;56.67
38054;BME280;23859;50.672;7.164;2022-11-15T10:23:06;99987.91;;;16.76;56.38
38054;BME280;23859;50.672;7.164;2022-11-15T10:25:36;99975.47;;;17.17;54.81
38054;BME280;23859;50.672;7.164;2022-11-15T10:28:30;99976.78;;;17.75;53.53
38054;BME280;23859;50.672;7.164;2022-11-15T10:30:58;99971.09;;;18.31;53.10
38054;BME280;23859;50.672;7.164;2022-11-15T10:33:31;99962.53;;;18.15;52.72
38054;BME280;23859;50.672;7.164;2022-11-15T10:36:22;99965.59;;;18.12;53.32
38054;BME280;23859;50.672;7.164;2022-11-15T10:46:44;99956.94;;;18.16;53.39
38054;BME280;23859;50.672;7.164;2022-11-15T10:49:16;99951.16;;;17.79;52.89
38054;BME280;23859;50.672;7.164;2022-11-15T10:51:51;99951.16;;;17.79;54.41
38054;BME280;23859;50.672;7.164;2022-11-15T10:54:33;99943.13;;;17.25;55.29
38054;BME280;23859;50.672;7.164;2022-11-15T10:57:05;99946.28;;;16.86;56.92
38054;BME280;23859;50.672;7.164;2022-11-15T10:59:35;99938.97;;;16.39;58.73
38054;BME280;23859;50.672;7.164;2022-11-15T11:02:08;99947.88;;;16.10;58.79
38054;BME280;23859;50.672;7.164;2022-11-15T11:04:51;99940.91;;;15.52;60.24
38054;BME280;23859;50.672;7.164;2022-11-15T11:07:29;99943.66;;;15.44;61.15
38054;BME280;23859;50.672;7.164;2022-11-15T11:10:02;99932.28;;;15.28;62.57
38054;BME280;23859;50.672;7.164;2022-11-15T11:12:31;99926.25;;;15.11;63.32
38054;BME280;23859;50.672;7.164;2022-11-15T11:14:59;99927.97;;;15.41;63.21
38054;BME280;23859;50.672;7.164;2022-11-15T11:20:42;99923.81;;;15.38;62.94
38054;BME280;23859;50.672;7.164;2022-11-15T11:23:42;99914.28;;;15.65;63.10
38054;BME280;23859;50.672;7.164;2022-11-15T11:35:22;99893.50;;;16.16;66.06
38054;BME280;23859;50.672;7.164;2022-11-15T11:37:56;99906.03;;;15.95;67.33
38054;BME280;23859;50.672;7.164;2022-11-15T11:40:35;99888.47;;;15.93;68.16
38054;BME280;23859;50.672;7.164;2022-11-15T11:43:18;99889.06;;;15.59;70.15
38054;BME280;23859;50.672;7.164;2022-11-15T11:46:26;99904.00;;;15.97;69.05
38054;BME280;23859;50.672;7.164;2022-11-15T11:49:14;99891.66;;;16.31;68.02
38054;BME280;23859;50.672;7.164;2022-11-15T11:52:02;99900.22;;;15.92;68.80
38054;BME280;23859;50.672;7.164;2022-11-15T11:54:46;99901.00;;;15.57;71.15
38054;BME280;23859;50.672;7.164;2022-11-15T11:57:39;99891.72;;;15.16;71.88
38054;BME280;23859;50.672;7.164;2022-11-15T12:00:20;99897.31;;;14.92;74.17
38054;BME280;23859;50.672;7.164;2022-11-15T12:05:41;99887.41;;;14.78;75.57
38054;BME280;23859;50.672;7.164;2022-11-15T12:08:30;99885.75;;;14.77;75.77
38054;BME280;23859;50.672;7.164;2022-11-15T12:11:12;99879.84;;;14.96;74.76
38054;BME280;23859;50.672;7.164;2022-11-15T12:13:41;99875.69;;;14.94;74.67
38054;BME280;23859;50.672;7.164;2022-11-15T12:18:39;99869.56;;;15.22;74.93
38054;BME280;23859;50.672;7.164;2022-11-15T12:21:18;99861.84;;;15.27;74.41
38054;BME280;23859;50.672;7.164;2022-11-15T12:23:51;99860.19;;;15.26;73.89
38054;BME280;23859;50.672;7.164;2022-11-15T12:26:26;99848.50;;;15.19;74.23
38054;BME280;23859;50.672;7.164;2022-11-15T12:29:00;99854.97;;;15.10;74.53
38054;BME280;23859;50.672;7.164;2022-11-15T12:34:03;99842.81;;;15.22;74.42
38054;BME280;23859;50.672;7.164;2022-11-15T12:36:38;99837.75;;;15.27;72.92
38054;BME280;23859;50.672;7.164;2022-11-15T12:39:12;99835.25;;;15.26;73.19
38054;BME280;23859;50.672;7.164;2022-11-15T12:47:04;99816.22;;;15.35;72.45
38054;BME280;23859;50.672;7.164;2022-11-15T12:49:48;99814.94;;;15.31;72.56
38054;BME280;23859;50.672;7.164;2022-11-15T12:52:15;99806.97;;;15.52;72.34
38054;BME280;23859;50.672;7.164;2022-11-15T12:59:57;99785.31;;;15.68;71.90
38054;BME280;23859;50.672;7.164;2022-11-15T13:02:35;99778.03;;;15.62;71.30
38054;BME280;23859;50.672;7.164;2022-11-15T13:12:55;99751.75;;;15.36;73.11
38054;BME280;23859;50.672;7.164;2022-11-15T13:15:38;99745.03;;;15.40;73.05
38054;BME280;23859;50.672;7.164;2022-11-15T13:18:31;99745.84;;;15.41;74.18
38054;BME280;23859;50.672;7.164;2022-11-15T13:20:58;99743.28;;;15.33;73.92
38054;BME280;23859;50.672;7.164;2022-11-15T13:23:25;99738.56;;;15.35;74.25
38054;BME280;23859;50.672;7.164;2022-11-15T13:26:12;99737.59;;;15.22;74.92
38054;BME280;23859;50.672;7.164;2022-11-15T13:28:49;99736.28;;;15.32;75.19
38054;BME280;23859;50.672;7.164;2022-11-15T13:31:28;99722.78;;;15.40;74.51
38054;BME280;23859;50.672;7.164;2022-11-15T13:33:59;99717.16;;;15.35;75.03
38054;BME280;23859;50.672;7.164;2022-11-15T13:36:33;99716.66;;;15.46;74.53
38054;BME280;23859;50.672;7.164;2022-11-15T13:39:32;99695.63;;;15.43;74.63
38054;BME280;23859;50.672;7.164;2022-11-15T13:41:58;99708.47;;;15.33;75.03
38054;BME280;23859;50.672;7.164;2022-11-15T13:44:27;99697.66;;;15.41;74.69
38054;BME280;23859;50.672;7.164;2022-11-15T13:47:05;99706.25;;;15.36;74.08
38054;BME280;23859;50.672;7.164;2022-11-15T13:49:33;99696.38;;;15.37;74.44
38054;BME280;23859;50.672;7.164;2022-11-15T13:52:02;99693.56;;;15.45;74.12
38054;BME280;23859;50.672;7.164;2022-11-15T13:54:40;99685.03;;;15.56;73.37
38054;BME280;23859;50.672;7.164;2022-11-15T13:57:28;99685.28;;;15.40;74.24
38054;BME280;23859;50.672;7.164;2022-11-15T13:59:59;99675.78;;;15.37;73.63
38054;BME280;23859;50.672;7.164;2022-11-15T14:02:29;99675.53;;;15.53;73.31
38054;BME280;23859;50.672;7.164;2022-11-15T14:07:26;99668.47;;;15.46;73.86
38054;BME280;23859;50.672;7.164;2022-11-15T14:09:54;99658.50;;;15.40;73.36
38054;BME280;23859;50.672;7.164;2022-11-15T14:12:32;99651.47;;;15.39;73.77
38054;BME280;23859;50.672;7.164;2022-11-15T14:15:01;99652.00;;;15.49;73.58
38054;BME280;23859;50.672;7.164;2022-11-15T14:19:57;99645.81;;;15.48;72.98
38054;BME280;23859;50.672;7.164;2022-11-15T14:22:26;99647.59;;;15.41;73.65
38054;BME280;23859;50.672;7.164;2022-11-15T14:27:38;99647.22;;;15.44;73.57
38054;BME280;23859;50.672;7.164;2022-11-15T14:30:05;99636.38;;;15.32;74.18
38054;BME280;23859;50.672;7.164;2022-11-15T14:32:48;99630.06;;;15.39;74.04
38054;BME280;23859;50.672;7.164;2022-11-15T14:35:17;99639.03;;;15.32;74.39
38054;BME280;23859;50.672;7.164;2022-11-15T14:37:44;99637.38;;;15.31;74.81